Time;durP1;ratioP1;P1;durP2;ratioP2;P2;SDS_P1;SDS_P2;PMS_P1;PMS_P2;Temp;Humidity;BMP_temperature;BMP_pressure;BME280_temperature;BME280_humidity;BME280_pressure;Samples;Min_cycle;Max_cycle;Signal;HPM_P1;HPM_P2
2022/11/29 00:02:18;;;;;;;43.17;35.23;;;;;;;6.29;100.00;101298.22;5040112;28;20021;-91
2022/11/29 00:04:43;;;;;;;48.10;38.33;;;;;;;6.31;100.00;101299.72;5052921;28;20116;-92
2022/11/29 00:07:08;;;;;;;48.27;37.47;;;;;;;6.27;100.00;101302.91;5055401;28;20109;-92
2022/11/29 00:09:34;;;;;;;46.77;37.23;;;;;;;6.23;100.00;101299.75;5037945;28;20465;-93
2022/11/29 00:12:11;;;;;;;42.23;35.90;;;;;;;6.34;100.00;101304.75;5057548;28;20051;-93
2022/11/29 00:14:37;;;;;;;41.90;34.23;;;;;;;6.24;100.00;101290.63;5044862;28;20045;-92
2022/11/29 00:17:03;;;;;;;43.73;35.63;;;;;;;6.12;100.00;101294.72;5055743;28;20377;-91
2022/11/29 00:19:30;;;;;;;38.97;34.20;;;;;;;6.23;100.00;101300.56;5053895;28;20055;-91
2022/11/29 00:21:55;;;;;;;39.30;32.33;;;;;;;6.11;100.00;101295.75;5057522;28;20096;-92
2022/11/29 00:24:21;;;;;;;34.53;30.83;;;;;;;6.10;100.00;101302.94;5047964;28;20053;-92
2022/11/29 00:26:47;;;;;;;33.17;29.30;;;;;;;6.06;100.00;101312.38;5042817;28;20036;-92
2022/11/29 00:29:12;;;;;;;34.27;30.47;;;;;;;6.12;100.00;101305.47;5035114;28;20382;-91
2022/11/29 00:31:38;;;;;;;43.57;35.53;;;;;;;6.14;100.00;101309.66;5038447;28;20029;-92
2022/11/29 00:34:05;;;;;;;50.47;30.83;;;;;;;5.98;100.00;101305.16;5054100;28;20040;-92
2022/11/29 00:36:32;;;;;;;56.27;29.17;;;;;;;5.98;100.00;101309.69;5055968;28;20110;-92
2022/11/29 00:38:58;;;;;;;56.07;30.30;;;;;;;5.92;100.00;101314.72;5056093;28;20127;-92
2022/11/29 00:41:24;;;;;;;33.90;30.20;;;;;;;5.98;100.00;101315.91;5054468;28;20481;-92
2022/11/29 00:43:50;;;;;;;33.37;29.67;;;;;;;5.92;100.00;101314.72;5054659;28;20036;-91
2022/11/29 00:46:15;;;;;;;42.70;29.67;;;;;;;5.89;100.00;101309.69;5053146;28;20040;-92
2022/11/29 00:48:40;;;;;;;138.13;29.87;;;;;;;5.88;100.00;101310.69;5040149;28;20036;-91
2022/11/29 00:51:06;;;;;;;71.13;29.10;;;;;;;5.84;100.00;101312.03;5047832;28;20098;-91
2022/11/29 00:53:33;;;;;;;37.93;29.50;;;;;;;5.84;100.00;101317.41;5052537;28;20115;-91
2022/11/29 00:55:59;;;;;;;35.93;29.43;;;;;;;5.79;100.00;101295.56;5053827;28;20039;-91
2022/11/29 00:58:24;;;;;;;40.43;33.13;;;;;;;5.95;100.00;101312.72;5053567;28;20021;-90
2022/11/29 01:00:52;;;;;;;46.33;38.30;;;;;;;5.94;100.00;101302.94;5047321;28;20029;-89
2022/11/29 01:03:17;;;;;;;52.10;40.07;;;;;;;6.04;100.00;101306.34;5052835;28;20033;-89
2022/11/29 01:05:43;;;;;;;50.50;40.10;;;;;;;6.08;100.00;101315.75;5049335;28;20056;-90
2022/11/29 01:08:11;;;;;;;53.70;37.20;;;;;;;5.99;100.00;101316.75;5045473;28;20033;-90
2022/11/29 01:10:36;;;;;;;127.83;39.60;;;;;;;5.94;100.00;101319.09;5046773;28;20033;-90
2022/11/29 01:13:09;;;;;;;47.00;34.17;;;;;;;5.92;100.00;101320.09;5053000;28;20083;-90
2022/11/29 01:15:35;;;;;;;53.93;37.03;;;;;;;5.82;100.00;101311.38;5043635;28;20071;-91
2022/11/29 01:18:01;;;;;;;53.67;37.30;;;;;;;5.78;100.00;101315.41;5033238;28;20033;-91
2022/11/29 01:20:26;;;;;;;39.20;33.13;;;;;;;5.81;100.00;101320.44;5050199;28;20035;-91
2022/11/29 01:22:52;;;;;;;54.07;36.13;;;;;;;5.74;100.00;101311.38;5040066;28;20036;-91
2022/11/29 01:25:18;;;;;;;41.17;32.17;;;;;;;5.77;100.00;101315.56;5038927;28;20094;-90
2022/11/29 01:27:44;;;;;;;37.03;32.87;;;;;;;5.79;100.00;101322.44;5049521;28;20095;-91
2022/11/29 01:30:10;;;;;;;37.00;32.43;;;;;;;5.77;100.00;101320.94;5041781;28;20032;-91
2022/11/29 01:32:36;;;;;;;40.07;33.57;;;;;;;5.82;100.00;101315.91;5036766;28;20057;-91
2022/11/29 01:35:02;;;;;;;41.23;34.10;;;;;;;5.82;100.00;101318.59;5050885;28;20025;-91
2022/11/29 01:37:28;;;;;;;49.63;33.90;;;;;;;5.73;100.00;101323.97;5035218;28;20034;-91
2022/11/29 01:39:53;;;;;;;57.33;34.50;;;;;;;5.74;100.00;101330.19;5033351;28;20511;-92
2022/11/29 01:42:19;;;;;;;46.83;32.60;;;;;;;5.72;100.00;101327.66;5045181;28;20037;-91
2022/11/29 01:44:44;;;;;;;163.73;34.17;;;;;;;5.67;100.00;101323.78;5053941;28;20056;-91
2022/11/29 01:47:11;;;;;;;142.73;32.37;;;;;;;5.65;100.00;101331.19;5042093;28;20154;-92
2022/11/29 01:49:48;;;;;;;107.23;34.20;;;;;;;5.71;100.00;101319.75;5046026;28;20048;-89
2022/11/29 01:52:19;;;;;;;91.85;33.15;;;;;;;5.68;100.00;101331.69;5052286;28;20526;-89
2022/11/29 01:54:48;;;;;;;175.70;40.40;;;;;;;5.65;100.00;101331.19;5054907;28;20028;-91
2022/11/29 01:57:14;;;;;;;85.40;34.03;;;;;;;5.69;100.00;101337.91;5051815;28;20035;-91
2022/11/29 01:59:47;;;;;;;96.60;34.00;;;;;;;5.64;100.00;101341.09;5044069;28;20120;-91
2022/11/29 02:02:23;;;;;;;77.80;34.20;;;;;;;5.71;100.00;101347.50;5035838;28;20048;-90
2022/11/29 02:04:49;;;;;;;198.47;42.40;;;;;;;5.53;100.00;101339.56;5049240;28;20021;-90
2022/11/29 02:07:15;;;;;;;185.63;42.57;;;;;;;5.48;100.00;101341.09;5031689;28;20481;-91
2022/11/29 02:09:40;;;;;;;145.77;36.47;;;;;;;5.46;100.00;101348.50;5043701;28;20032;-90
2022/11/29 02:12:30;;;;;;;124.27;36.47;;;;;;;5.52;100.00;101347.81;5041356;28;20039;-90
2022/11/29 02:15:17;;;;;;;128.93;37.83;;;;;;;5.54;100.00;101352.00;5052616;28;20480;-90
2022/11/29 02:17:48;;;;;;;97.60;37.57;;;;;;;5.50;100.00;101349.84;5053469;28;20462;-90
2022/11/29 02:20:51;;;;;;;68.40;35.43;;;;;;;5.57;100.00;101345.47;5053195;28;20365;-90
2022/11/29 02:23:38;;;;;;;94.13;36.33;;;;;;;5.56;100.00;101352.69;5048293;28;20029;-90
2022/11/29 02:26:22;;;;;;;56.40;35.10;;;;;;;5.61;100.00;101356.75;5047522;28;20032;-90
2022/11/29 02:29:22;;;;;;;66.33;35.20;;;;;;;5.56;100.00;101351.84;5038712;28;20389;-90
2022/11/29 02:32:12;;;;;;;64.07;34.37;;;;;;;5.50;100.00;101353.34;5048564;28;20059;-90
2022/11/29 02:34:46;;;;;;;69.40;34.33;;;;;;;5.50;100.00;101355.22;5037360;28;20120;-90
2022/11/29 02:37:47;;;;;;;124.78;39.65;;;;;;;5.55;100.00;101359.06;5037033;28;20104;-91
2022/11/29 02:40:23;;;;;;;133.20;39.60;;;;;;;5.50;100.00;101363.28;5042105;28;20457;-90
2022/11/29 02:42:54;;;;;;;116.20;39.13;;;;;;;5.48;100.00;101354.53;5044746;28;20056;-90
2022/11/29 02:45:45;;;;;;;149.23;43.17;;;;;;;5.45;100.00;101366.44;5054726;28;20091;-90
2022/11/29 02:48:26;;;;;;;160.40;45.77;;;;;;;5.49;100.00;101365.09;5041604;28;20112;-90
2022/11/29 02:51:14;;;;;;;141.93;42.90;;;;;;;5.51;100.00;101376.53;5045070;28;20033;-90
2022/11/29 02:53:39;;;;;;;129.80;43.57;;;;;;;5.51;100.00;101371.16;5044642;28;20033;-90
2022/11/29 02:59:38;;;;;;;169.03;43.77;;;;;;;5.50;100.00;101369.47;5054923;28;20095;-90
2022/11/29 03:02:20;;;;;;;174.70;42.47;;;;;;;5.54;100.00;101383.44;5050200;28;20025;-90
2022/11/29 03:04:53;;;;;;;212.13;44.93;;;;;;;5.53;100.00;101376.38;5037685;28;20032;-90
2022/11/29 03:07:37;;;;;;;237.10;46.27;;;;;;;5.49;100.00;101377.72;5055153;28;20033;-90
2022/11/29 03:10:39;;;;;;;135.43;39.63;;;;;;;5.60;100.00;101387.31;5048109;28;20029;-90
2022/11/29 03:13:16;;;;;;;130.90;40.10;;;;;;;5.59;100.00;101386.47;5054845;28;20423;-92
2022/11/29 03:15:56;;;;;;;177.07;44.63;;;;;;;5.56;100.00;101384.97;5052844;28;20041;-93
2022/11/29 03:18:41;;;;;;;132.00;39.87;;;;;;;5.54;100.00;101380.75;5049938;28;20035;-90
2022/11/29 03:21:21;;;;;;;152.45;42.63;;;;;;;5.63;100.00;101392.34;5053805;28;20108;-90
2022/11/29 03:23:52;;;;;;;236.67;47.03;;;;;;;5.55;100.00;101387.81;5053295;28;20030;-90
2022/11/29 03:26:40;;;;;;;142.17;43.83;;;;;;;5.63;100.00;101395.03;5039332;28;20056;-90
2022/11/29 03:29:08;;;;;;;138.17;42.00;;;;;;;5.61;100.00;101397.06;5038986;28;20056;-90
2022/11/29 03:31:38;;;;;;;156.90;42.87;;;;;;;5.48;100.00;101382.25;5053685;28;20476;-90
2022/11/29 03:34:41;;;;;;;167.27;44.80;;;;;;;5.65;100.00;101406.47;5055996;28;20460;-90
2022/11/29 03:37:20;;;;;;;170.17;45.43;;;;;;;5.66;100.00;101406.31;5047724;28;20040;-91
2022/11/29 03:40:03;;;;;;;129.93;41.10;;;;;;;5.58;100.00;101400.91;5055756;28;20095;-91
2022/11/29 03:43:18;;;;;;;112.63;40.27;;;;;;;5.67;100.00;101399.94;5055017;28;20405;-91
2022/11/29 03:46:28;;;;;;;113.60;41.23;;;;;;;5.74;100.00;101421.63;5044717;28;20492;-91
2022/11/29 03:49:01;;;;;;;90.37;39.07;;;;;;;5.70;100.00;101421.09;5046179;28;20287;-90
2022/11/29 03:51:35;;;;;;;96.37;38.00;;;;;;;5.70;100.00;101422.97;5048574;28;20024;-90
2022/11/29 03:54:08;;;;;;;84.30;36.45;;;;;;;5.68;100.00;101428.47;5051018;28;20037;-90
2022/11/29 03:56:36;;;;;;;68.07;37.00;;;;;;;5.61;100.00;101415.88;5040167;28;20024;-90
2022/11/29 03:59:30;;;;;;;73.87;37.70;;;;;;;5.66;100.00;101433.19;5033563;28;20036;-90
2022/11/29 04:01:55;;;;;;;73.43;37.77;;;;;;;5.64;100.00;101437.06;5043531;28;20368;-90
2022/11/29 04:04:51;;;;;;;64.83;38.30;;;;;;;5.66;100.00;101435.06;5055056;28;20029;-91
2022/11/29 04:07:46;;;;;;;68.63;38.20;;;;;;;5.61;100.00;101426.63;5051302;28;20038;-92
2022/11/29 04:10:46;;;;;;;47.33;36.00;;;;;;;5.61;100.00;101448.13;5048625;28;20080;-91
2022/11/29 04:13:55;;;;;;;55.80;37.60;;;;;;;5.56;100.00;101449.47;5053430;28;20029;-92
2022/11/29 04:16:40;;;;;;;53.73;35.80;;;;;;;5.51;100.00;101441.06;5040363;28;20036;-92
2022/11/29 04:19:21;;;;;;;56.50;36.03;;;;;;;5.51;100.00;101438.38;5048801;28;20037;-90
2022/11/29 04:22:05;;;;;;;75.27;37.00;;;;;;;5.43;100.00;101424.91;5052310;28;20469;-90
2022/11/29 04:25:17;;;;;;;50.57;34.63;;;;;;;5.51;100.00;101451.81;5042347;28;20473;-90
2022/11/29 04:28:02;;;;;;;85.67;36.97;;;;;;;5.31;100.00;101426.22;5022424;28;20159;-91
2022/11/29 04:30:50;;;;;;;72.40;34.58;;;;;;;5.45;100.00;101439.00;5042260;28;20084;-91
2022/11/29 04:33:21;;;;;;;47.27;33.93;;;;;;;5.51;100.00;101454.50;5036626;28;20098;-90
2022/11/29 04:36:25;;;;;;;58.53;34.73;;;;;;;5.57;100.00;101453.00;5035477;28;20477;-91
2022/11/29 04:39:16;;;;;;;62.30;34.83;;;;;;;5.57;100.00;101469.94;5019130;28;20040;-91
2022/11/29 04:42:19;;;;;;;52.77;34.20;;;;;;;5.57;100.00;101464.56;5016853;28;20032;-91
2022/11/29 04:45:11;;;;;;;57.43;35.20;;;;;;;5.41;100.00;101448.41;5043507;28;20056;-91
2022/11/29 04:48:15;;;;;;;50.97;36.40;;;;;;;5.50;100.00;101466.25;5041319;28;20044;-92
2022/11/29 04:50:59;;;;;;;55.47;36.50;;;;;;;5.50;100.00;101468.09;5044590;28;20029;-91
2022/11/29 04:53:54;;;;;;;44.17;35.00;;;;;;;5.47;100.00;101476.50;5051093;28;20033;-90
2022/11/29 04:56:33;;;;;;;50.63;36.00;;;;;;;5.39;100.00;101466.56;5051854;28;20043;-91
2022/11/29 04:59:11;;;;;;;44.97;33.77;;;;;;;5.39;100.00;101467.38;5042153;28;20412;-90
2022/11/29 05:02:31;;;;;;;49.00;34.63;;;;;;;5.45;100.00;101476.63;5050637;28;20480;-90
2022/11/29 05:05:27;;;;;;;49.87;34.97;;;;;;;5.44;100.00;101490.25;4971635;28;20030;-90
2022/11/29 05:08:18;;;;;;;50.97;34.80;;;;;;;5.36;100.00;101474.94;5039099;28;20028;-90
2022/11/29 05:10:58;;;;;;;55.87;34.10;;;;;;;5.31;100.00;101478.09;5050200;28;20033;-91
2022/11/29 05:13:42;;;;;;;42.27;31.60;;;;;;;5.52;100.00;101492.97;5047083;28;20408;-90
2022/11/29 05:16:31;;;;;;;55.10;34.30;;;;;;;5.38;100.00;101494.41;5036018;28;20037;-91
2022/11/29 05:19:34;;;;;;;51.73;32.13;;;;;;;5.47;100.00;101501.53;5054346;28;20472;-90
2022/11/29 05:22:29;;;;;;;52.23;32.90;;;;;;;5.48;100.00;101510.41;5053551;28;20408;-90
2022/11/29 05:25:46;;;;;;;62.28;36.30;;;;;;;5.51;100.00;101513.63;5050444;28;20024;-90
2022/11/29 05:28:36;;;;;;;49.73;32.63;;;;;;;5.50;100.00;101520.00;5028703;28;20446;-89
2022/11/29 05:31:24;;;;;;;53.57;35.13;;;;;;;5.55;100.00;101515.00;5039102;28;20032;-90
2022/11/29 05:33:50;;;;;;;56.87;34.20;;;;;;;5.50;100.00;101506.56;5053810;28;20505;-90
2022/11/29 05:36:34;;;;;;;63.07;35.50;;;;;;;5.48;100.00;101519.34;5053525;28;20129;-90
2022/11/29 05:39:21;;;;;;;83.75;36.55;;;;;;;5.48;100.00;101523.84;5053688;28;20332;-90
2022/11/29 05:42:13;;;;;;;111.13;38.53;;;;;;;5.54;100.00;101524.06;5054729;28;20064;-91
2022/11/29 05:44:59;;;;;;;72.80;36.33;;;;;;;5.56;100.00;101519.38;5053966;28;20037;-91
2022/11/29 05:47:50;;;;;;;295.23;48.47;;;;;;;5.55;100.00;101523.06;5043591;28;20413;-89
2022/11/29 05:50:30;;;;;;;73.03;35.43;;;;;;;5.58;100.00;101530.78;5017457;28;20469;-90
2022/11/29 05:53:10;;;;;;;72.37;36.17;;;;;;;5.54;100.00;101534.81;5032939;28;20033;-89
2022/11/29 05:56:14;;;;;;;127.07;38.70;;;;;;;5.55;100.00;101538.34;5050451;28;20475;-90
2022/11/29 05:58:42;;;;;;;123.47;37.97;;;;;;;5.50;100.00;101544.19;5051442;28;20100;-89
2022/11/29 06:01:31;;;;;;;125.13;39.47;;;;;;;5.52;100.00;101547.56;5042738;28;20127;-89
2022/11/29 06:04:32;;;;;;;120.07;38.13;;;;;;;5.50;100.00;101552.25;5032514;28;20462;-89
2022/11/29 06:07:10;;;;;;;191.67;41.63;;;;;;;5.31;100.00;101533.69;5043359;28;20024;-89
2022/11/29 06:10:16;;;;;;;171.40;41.53;;;;;;;5.45;100.00;101551.06;5048898;28;20036;-89
2022/11/29 06:12:51;;;;;;;115.80;39.00;;;;;;;5.42;100.00;101560.28;5047073;28;20024;-89
2022/11/29 06:19:09;;;;;;;171.40;39.93;;;;;;;5.39;100.00;101558.75;5053809;28;20028;-89
2022/11/29 06:21:37;;;;;;;96.40;37.80;;;;;;;5.46;100.00;101563.50;5053794;28;20094;-91
2022/11/29 06:24:24;;;;;;;159.80;40.97;;;;;;;5.48;100.00;101570.41;5052606;28;20037;-89
2022/11/29 06:27:03;;;;;;;173.57;42.57;;;;;;;5.41;100.00;101563.97;5042065;28;20041;-90
2022/11/29 06:29:35;;;;;;;193.23;43.73;;;;;;;5.37;100.00;101581.41;5034126;28;20040;-91
2022/11/29 06:32:09;;;;;;;163.93;42.83;;;;;;;5.41;100.00;101583.63;5034205;28;20116;-91
2022/11/29 06:34:45;;;;;;;197.82;45.40;;;;;;;5.38;100.00;101581.25;5033672;28;20055;-91
2022/11/29 06:37:50;;;;;;;122.57;42.17;;;;;;;5.47;100.00;101582.16;5033265;28;20377;-91
2022/11/29 06:40:16;;;;;;;104.55;41.13;;;;;;;5.39;100.00;101582.13;4989982;28;20073;-91
2022/11/29 06:42:42;;;;;;;166.70;44.37;;;;;;;5.38;100.00;101588.47;4984689;28;20450;-91
2022/11/29 06:45:17;;;;;;;125.67;39.80;;;;;;;5.33;100.00;101594.34;5003894;28;20045;-88
2022/11/29 06:47:51;;;;;;;110.30;36.55;;;;;;;5.35;100.00;101599.56;5034499;28;20041;-89
2022/11/29 06:50:19;;;;;;;106.65;37.25;;;;;;;5.35;100.00;101608.44;5043636;28;20029;-89
2022/11/29 06:53:03;;;;;;;141.07;40.97;;;;;;;5.37;100.00;101613.66;5049218;28;20032;-90
2022/11/29 06:55:44;;;;;;;134.80;39.50;;;;;;;5.24;100.00;101619.47;5035165;28;20040;-92
2022/11/29 06:58:16;;;;;;;121.87;39.70;;;;;;;5.21;100.00;101626.00;5035363;28;20030;-90
2022/11/29 07:00:59;;;;;;;101.67;39.40;;;;;;;5.20;100.00;101618.09;5018183;28;20040;-92
2022/11/29 07:03:51;;;;;;;139.23;41.37;;;;;;;5.15;100.00;101609.66;5047210;28;20048;-92
2022/11/29 07:06:34;;;;;;;142.50;40.80;;;;;;;5.18;100.00;101626.31;5052296;28;20468;-93
2022/11/29 07:09:09;;;;;;;87.73;38.47;;;;;;;5.27;100.00;101634.44;5046414;28;20097;-92
2022/11/29 07:11:34;;;;;;;;;;;;;;;5.41;100.00;101639.22;5051595;28;20401;-91
2022/11/29 07:14:01;;;;;;;164.47;42.83;;;;;;;5.25;100.00;101629.22;5041056;28;19971;-90
2022/11/29 07:16:38;;;;;;;99.53;39.47;;;;;;;5.32;100.00;101638.34;5030033;28;20057;-90
2022/11/29 07:19:12;;;;;;;90.90;38.57;;;;;;;5.21;100.00;101617.09;5018066;28;20027;-89
2022/11/29 07:21:41;;;;;;;;;;;;;;;5.48;100.00;101636.75;5034782;28;20028;-90
2022/11/29 07:27:28;;;;;;;167.93;42.93;;;;;;;5.25;100.00;101648.03;4999827;28;20064;-92
2022/11/29 07:30:27;;;;;;;180.90;42.83;;;;;;;5.30;100.00;101651.06;4990579;28;20124;-92
2022/11/29 07:33:07;;;;;;;98.20;39.77;;;;;;;5.33;100.00;101657.97;4993828;28;20421;-92
2022/11/29 07:35:52;;;;;;;151.93;42.93;;;;;;;5.31;100.00;101662.69;4993810;28;20111;-91
2022/11/29 07:38:26;;;;;;;123.23;41.70;;;;;;;5.35;100.00;101666.75;4997117;28;20418;-92
2022/11/29 07:41:14;;;;;;;179.40;42.60;;;;;;;5.29;100.00;101659.28;5001404;28;20073;-92
2022/11/29 07:44:02;;;;;;;211.10;44.07;;;;;;;5.22;100.00;101643.81;4989570;28;20030;-92
2022/11/29 07:46:28;;;;;;;158.00;43.60;;;;;;;5.24;100.00;101662.47;4986771;28;20054;-92
2022/11/29 07:48:53;;;;;;;204.57;43.60;;;;;;;5.32;100.00;101672.44;5018653;28;20042;-92
2022/11/29 07:51:19;;;;;;;171.27;43.07;;;;;;;5.31;100.00;101676.13;5014501;28;20426;-91
2022/11/29 07:53:44;;;;;;;171.83;42.60;;;;;;;5.27;100.00;101654.06;5013549;28;20077;-91
2022/11/29 07:59:37;;;;;;;155.00;41.33;;;;;;;5.26;100.00;101681.09;5055573;28;20031;-92
2022/11/29 08:02:02;;;;;;;163.33;40.53;;;;;;;5.30;100.00;101685.16;5023023;28;20480;-92
2022/11/29 08:04:28;;;;;;;155.30;41.10;;;;;;;5.18;100.00;101673.81;5021823;28;20037;-92
2022/11/29 08:06:57;;;;;;;149.83;40.00;;;;;;;5.19;100.00;101673.66;5032431;28;20420;-90
2022/11/29 08:09:22;;;;;;;195.07;42.40;;;;;;;5.19;100.00;101665.59;5031011;28;20037;-91
2022/11/29 08:11:48;;;;;;;110.27;39.37;;;;;;;5.34;100.00;101667.72;5030694;28;20496;-92
2022/11/29 08:14:14;;;;;;;199.27;44.43;;;;;;;5.26;100.00;101675.72;5030339;28;20030;-92
2022/11/29 08:16:39;;;;;;;226.47;46.27;;;;;;;5.29;100.00;101673.59;5027580;28;20581;-92
2022/11/29 08:19:04;;;;;;;128.07;39.87;;;;;;;5.40;100.00;101676.00;5029447;28;20164;-91
2022/11/29 08:21:30;;;;;;;132.33;42.63;;;;;;;5.44;100.00;101667.63;5025962;28;20076;-92
2022/11/29 08:23:55;;;;;;;146.93;43.17;;;;;;;5.45;100.00;101674.69;5027119;28;20041;-91
2022/11/29 08:26:21;;;;;;;188.10;43.83;;;;;;;5.48;100.00;101682.44;5025863;28;20041;-91
2022/11/29 08:28:52;;;;;;;149.43;41.33;;;;;;;5.37;100.00;101668.28;5041762;28;20029;-90
2022/11/29 08:31:19;;;;;;;156.70;42.23;;;;;;;5.46;100.00;101681.75;5027147;28;20029;-92
2022/11/29 08:33:44;;;;;;;122.87;41.00;;;;;;;5.46;100.00;101685.28;5029281;28;20482;-92
2022/11/29 08:36:15;;;;;;;115.83;40.43;;;;;;;5.52;100.00;101691.88;5027590;28;21408;-92
2022/11/29 08:38:41;;;;;;;115.77;39.60;;;;;;;5.49;100.00;101693.03;5026995;28;20030;-92
2022/11/29 08:41:11;;;;;;;81.60;36.10;;;;;;;5.55;100.00;101697.78;5024142;28;20052;-91
2022/11/29 08:43:36;;;;;;;94.60;38.00;;;;;;;5.54;100.00;101690.72;5024983;28;20048;-92
2022/11/29 08:46:02;;;;;;;92.90;39.63;;;;;;;5.63;100.00;101696.16;5026787;28;20575;-92
2022/11/29 08:48:28;;;;;;;124.10;41.27;;;;;;;5.63;100.00;101704.22;5026575;28;20400;-91
2022/11/29 08:50:54;;;;;;;124.93;40.17;;;;;;;5.65;100.00;101702.22;5026633;28;20091;-91
2022/11/29 08:56:05;;;;;;;;;;;;;;;5.84;100.00;101712.75;5027818;28;20064;-90
2022/11/29 08:58:31;;;;;;;124.43;40.57;;;;;;;5.79;100.00;101717.75;5027127;28;20422;-92
2022/11/29 09:00:57;;;;;;;142.63;41.17;;;;;;;5.76;100.00;101715.38;5028873;28;20496;-92
2022/11/29 09:06:09;;;;;;;116.60;41.30;;;;;;;5.83;100.00;101727.19;5026363;28;20362;-91
2022/11/29 09:09:12;;;;;;;165.90;42.20;;;;;;;5.89;100.00;101734.63;5031773;28;20036;-91
2022/11/29 09:11:38;;;;;;;105.07;40.13;;;;;;;5.98;100.00;101726.66;5030452;28;20372;-89
2022/11/29 09:14:05;;;;;;;170.03;44.37;;;;;;;5.84;100.00;101731.56;5034249;28;20041;-90
2022/11/29 09:16:34;;;;;;;151.93;40.50;;;;;;;5.96;100.00;101742.09;5037867;28;20017;-91
2022/11/29 09:18:59;;;;;;;171.20;40.20;;;;;;;5.94;100.00;101744.06;5052412;28;20461;-90
2022/11/29 09:21:28;;;;;;;197.67;41.53;;;;;;;5.91;100.00;101738.00;5053499;28;20028;-90
2022/11/29 09:24:01;;;;;;;222.10;41.87;;;;;;;5.95;100.00;101746.59;5052763;28;20040;-90
2022/11/29 09:26:31;;;;;;;255.90;44.73;;;;;;;5.99;100.00;101749.88;5053542;28;20021;-90
2022/11/29 09:29:00;;;;;;;142.83;39.90;;;;;;;6.05;100.00;101751.91;5052786;28;20032;-90
2022/11/29 09:31:26;;;;;;;259.47;46.30;;;;;;;5.90;100.00;101739.03;5054719;28;20032;-90
2022/11/29 09:33:53;;;;;;;170.27;41.50;;;;;;;6.10;100.00;101754.97;5052543;28;20025;-90
2022/11/29 09:36:18;;;;;;;202.00;42.33;;;;;;;6.15;100.00;101758.03;5054772;28;20079;-90
2022/11/29 09:38:44;;;;;;;279.13;46.77;;;;;;;6.01;100.00;101745.16;5053878;28;20033;-90
2022/11/29 09:41:38;;;;;;;134.13;39.43;;;;;;;6.20;100.00;101755.69;5044709;28;20462;-91
2022/11/29 09:44:28;;;;;;;247.30;43.20;;;;;;;6.23;100.00;101765.31;5003290;28;20063;-90
2022/11/29 09:47:51;;;;;;;242.10;42.97;;;;;;;6.31;100.00;101772.56;5041057;28;20072;-91
2022/11/29 09:50:32;;;;;;;226.13;42.57;;;;;;;6.27;100.00;101781.94;4972534;28;20051;-90
2022/11/29 09:53:47;;;;;;;215.60;41.93;;;;;;;6.31;100.00;101777.94;4957044;28;20147;-91
2022/11/29 09:56:27;;;;;;;156.15;38.65;;;;;;;6.10;100.00;101749.56;4996042;28;20040;-91
2022/11/29 09:58:59;;;;;;;228.07;42.57;;;;;;;6.14;100.00;101753.63;5040221;28;20480;-90
2022/11/29 10:01:30;;;;;;;188.37;39.20;;;;;;;6.23;100.00;101776.06;5032315;28;20470;-90
2022/11/29 10:04:01;;;;;;;154.43;39.30;;;;;;;6.28;100.00;101767.50;5039978;28;20029;-90
2022/11/29 10:06:39;;;;;;;289.33;45.33;;;;;;;6.21;100.00;101762.75;5033384;28;20033;-90
2022/11/29 10:09:15;;;;;;;241.33;42.90;;;;;;;6.30;100.00;101762.81;5032694;28;20025;-91
2022/11/29 10:11:54;;;;;;;141.17;37.43;;;;;;;6.28;100.00;101762.13;5033776;28;20028;-91
2022/11/29 10:14:25;;;;;;;187.00;38.43;;;;;;;6.21;100.00;101756.53;5030255;28;20124;-91
2022/11/29 10:17:04;;;;;;;199.40;37.20;;;;;;;6.26;100.00;101759.59;5049444;28;20368;-90
2022/11/29 10:19:35;;;;;;;238.97;41.43;;;;;;;6.29;100.00;101756.56;5039317;28;20033;-91
2022/11/29 10:22:14;;;;;;;187.90;36.23;;;;;;;6.16;100.00;101759.72;5048962;28;20056;-90
2022/11/29 10:24:43;;;;;;;88.23;28.53;;;;;;;6.21;100.00;101751.97;5034308;28;20079;-90
2022/11/29 10:27:18;;;;;;;108.67;30.07;;;;;;;6.31;100.00;101753.72;5051595;28;20043;-90
2022/11/29 10:29:47;;;;;;;77.67;27.83;;;;;;;6.37;100.00;101761.16;5034200;28;20084;-91
2022/11/29 10:32:14;;;;;;;80.40;28.50;;;;;;;6.37;100.00;101766.53;5031599;28;20045;-91
2022/11/29 10:34:44;;;;;;;96.53;28.93;;;;;;;6.29;100.00;101758.44;5045838;28;20033;-91
2022/11/29 10:37:14;;;;;;;76.93;27.10;;;;;;;6.24;100.00;101751.69;5053565;28;20460;-91
2022/11/29 10:39:45;;;;;;;82.87;28.03;;;;;;;6.31;100.00;101754.56;5044058;28;20047;-91
2022/11/29 10:45:03;;;;;;;93.63;29.33;;;;;;;6.33;100.00;101759.78;5024535;28;20055;-91
2022/11/29 10:47:30;;;;;;;102.90;29.23;;;;;;;6.25;100.00;101747.97;5020336;28;20251;-91
2022/11/29 10:49:56;;;;;;;151.00;33.13;;;;;;;6.27;100.00;101749.66;5020007;28;20121;-91
2022/11/29 10:52:22;;;;;;;100.33;31.20;;;;;;;6.34;100.00;101750.72;5021536;28;20037;-91
2022/11/29 10:54:50;;;;;;;112.07;32.47;;;;;;;6.32;100.00;101758.09;5022250;28;21223;-90
2022/11/29 10:57:21;;;;;;;88.90;30.47;;;;;;;6.52;100.00;101781.06;5023158;28;20041;-91
2022/11/29 11:00:08;;;;;;;125.50;33.40;;;;;;;6.54;100.00;101776.38;5024253;28;20033;-91
2022/11/29 11:02:35;;;;;;;104.80;32.37;;;;;;;6.41;100.00;101759.81;5025376;28;20366;-90
2022/11/29 11:05:01;;;;;;;131.73;33.53;;;;;;;6.42;100.00;101783.06;5023119;28;20508;-91
2022/11/29 11:07:34;;;;;;;80.47;31.17;;;;;;;6.33;100.00;101765.19;5022696;28;20037;-90
2022/11/29 11:10:01;;;;;;;94.07;31.57;;;;;;;6.41;100.00;101782.19;5025291;28;20044;-89
2022/11/29 11:12:32;;;;;;;166.97;35.73;;;;;;;6.30;100.00;101771.72;5024361;28;20059;-90
2022/11/29 11:15:30;;;;;;;144.57;32.80;;;;;;;6.48;100.00;101785.09;5024203;28;20037;-90
2022/11/29 11:18:06;;;;;;;190.03;37.47;;;;;;;6.33;100.00;101755.25;5021108;28;21109;-90
2022/11/29 11:20:40;;;;;;;137.07;33.10;;;;;;;6.29;100.00;101766.50;5024775;28;20043;-91
2022/11/29 11:23:28;;;;;;;97.88;32.45;;;;;;;6.54;100.00;101787.16;5023490;28;20177;-91
2022/11/29 11:26:01;;;;;;;95.10;33.77;;;;;;;6.41;100.00;101766.03;5010473;28;20041;-90
2022/11/29 11:28:58;;;;;;;91.18;34.35;;;;;;;6.49;100.00;101764.41;5024013;28;20040;-89
2022/11/29 11:31:39;;;;;;;118.53;35.07;;;;;;;6.36;100.00;101754.91;5029215;28;20496;-91
2022/11/29 11:34:25;;;;;;;113.63;34.77;;;;;;;6.43;100.00;101763.19;5029399;28;20028;-91
2022/11/29 11:36:51;;;;;;;116.73;36.43;;;;;;;6.38;100.00;101776.31;5030069;28;20512;-91
2022/11/29 11:39:22;;;;;;;120.80;36.23;;;;;;;6.46;100.00;101773.66;5032654;28;20029;-90
2022/11/29 11:44:40;;;;;;;132.47;38.43;;;;;;;6.63;100.00;101801.47;5030903;28;20400;-90
2022/11/29 11:47:13;;;;;;;122.63;37.77;;;;;;;6.46;100.00;101770.09;5028673;28;20060;-91
2022/11/29 11:49:52;;;;;;;83.30;37.33;;;;;;;6.54;100.00;101789.84;5029756;28;20029;-91
2022/11/29 11:52:41;;;;;;;136.10;37.90;;;;;;;6.45;100.00;101785.41;5031725;28;20037;-91
2022/11/29 11:55:34;;;;;;;111.37;37.87;;;;;;;6.55;100.00;101785.28;5016984;28;20139;-90
2022/11/29 11:58:05;;;;;;;106.13;37.77;;;;;;;6.68;100.00;101818.00;5029552;28;20113;-90
2022/11/29 12:00:42;;;;;;;91.60;35.73;;;;;;;6.56;100.00;101793.19;5031099;28;20044;-91
2022/11/29 12:03:25;;;;;;;88.93;34.30;;;;;;;6.57;100.00;101805.66;5035023;28;20046;-91
2022/11/29 12:05:55;;;;;;;77.30;33.93;;;;;;;6.52;100.00;101797.22;5028969;28;20045;-90
2022/11/29 12:08:22;;;;;;;89.47;34.37;;;;;;;6.47;100.00;101787.94;5027973;28;20705;-90
2022/11/29 12:10:52;;;;;;;90.30;35.37;;;;;;;6.50;100.00;101801.06;5030246;28;20037;-90
2022/11/29 12:13:24;;;;;;;108.67;36.40;;;;;;;6.51;100.00;101797.38;5030573;28;20052;-91
2022/11/29 12:15:51;;;;;;;92.00;35.87;;;;;;;6.57;100.00;101802.97;5030018;28;20045;-90